createdAt,value
2022-09-18T00:00:33.605Z,6.40
2022-09-18T00:04:14.355Z,7.60
2022-09-18T00:07:47.195Z,7.60
2022-09-18T00:11:27.434Z,8.20
2022-09-18T00:15:01.140Z,5.20
2022-09-18T00:18:38.065Z,7.30
2022-09-18T00:22:14.374Z,9.90
2022-09-18T00:25:51.719Z,5.10
2022-09-18T00:29:28.325Z,8.00
2022-09-18T00:33:05.215Z,7.90
2022-09-18T00:36:42.479Z,8.30
2022-09-18T00:40:18.894Z,9.40
2022-09-18T00:44:34.380Z,8.10
2022-09-18T00:47:50.696Z,7.60
2022-09-18T00:51:26.210Z,4.90
2022-09-18T00:55:08.658Z,7.00
2022-09-18T00:58:37.940Z,5.80
2022-09-18T01:02:14.824Z,5.00
2022-09-18T01:06:16.034Z,5.30
2022-09-18T01:09:58.957Z,4.10
2022-09-18T01:13:49.885Z,10.20
2022-09-18T01:17:06.183Z,7.60
2022-09-18T01:20:56.424Z,5.70
2022-09-18T01:24:41.786Z,7.60
2022-09-18T01:28:14.662Z,10.30
2022-09-18T01:32:14.417Z,9.80
2022-09-18T01:35:41.637Z,4.00
2022-09-18T01:43:16.129Z,6.80
2022-09-18T01:46:50.508Z,7.70
2022-09-18T01:50:29.438Z,9.50
2022-09-18T01:54:08.451Z,8.10
2022-09-18T01:57:47.439Z,9.20
2022-09-18T02:01:20.533Z,8.70
2022-09-18T02:04:56.863Z,6.80
2022-09-18T02:08:48.298Z,7.90
2022-09-18T02:12:08.509Z,9.80
2022-09-18T02:15:46.239Z,6.00
2022-09-18T02:19:28.656Z,6.30
2022-09-18T02:23:03.267Z,9.10
2022-09-18T02:26:35.477Z,5.70
2022-09-18T02:30:11.068Z,4.80
2022-09-18T02:33:46.358Z,7.10
2022-09-18T02:37:54.500Z,7.20
2022-09-18T02:41:51.022Z,6.80
2022-09-18T02:45:28.024Z,6.60
2022-09-18T02:48:55.873Z,4.60
2022-09-18T02:52:30.016Z,6.40
2022-09-18T02:56:09.676Z,5.10
2022-09-18T02:59:43.897Z,3.40
2022-09-18T03:03:14.444Z,5.50
2022-09-18T03:06:46.897Z,7.50
2022-09-18T03:10:22.977Z,5.30
2022-09-18T03:13:59.818Z,3.70
2022-09-18T03:17:37.322Z,5.20
2022-09-18T03:21:13.626Z,6.30
2022-09-18T03:24:50.176Z,6.80
2022-09-18T03:28:26.960Z,5.80
2022-09-18T03:32:04.019Z,6.90
2022-09-18T03:35:40.638Z,6.60
2022-09-18T03:39:18.657Z,5.50
2022-09-18T03:42:54.285Z,6.50
2022-09-18T03:46:31.593Z,5.80
2022-09-18T03:50:08.198Z,6.60
2022-09-18T03:53:45.926Z,7.00
2022-09-18T03:57:21.330Z,8.70
2022-09-18T04:00:58.094Z,5.80
2022-09-18T04:04:35.659Z,5.50
2022-09-18T04:08:17.937Z,7.20
2022-09-18T04:11:54.478Z,8.20
2022-09-18T04:15:29.146Z,5.70
2022-09-18T04:19:05.475Z,10.30
2022-09-18T04:22:42.257Z,4.80
2022-09-18T04:26:19.559Z,7.60
2022-09-18T04:29:55.948Z,8.90
2022-09-18T04:33:32.644Z,8.00
2022-09-18T04:37:10.665Z,7.50
2022-09-18T04:40:54.483Z,9.10
2022-09-18T04:44:23.486Z,7.70
2022-09-18T04:48:00.084Z,13.60
2022-09-18T04:51:36.762Z,7.50
2022-09-18T04:58:51.346Z,6.70
2022-09-18T05:02:27.165Z,7.50
2022-09-18T05:06:04.187Z,8.80
2022-09-18T05:09:41.181Z,9.50
2022-09-18T05:13:17.699Z,8.10
2022-09-18T05:16:54.940Z,10.00
2022-09-18T05:20:34.164Z,8.80
2022-09-18T05:24:08.524Z,11.70
2022-09-18T05:27:52.844Z,7.50
2022-09-18T05:31:21.802Z,9.20
2022-09-18T05:34:59.086Z,15.90
2022-09-18T05:38:35.279Z,10.10
2022-09-18T05:42:12.697Z,7.00
2022-09-18T05:45:49.290Z,8.50
2022-09-18T05:49:25.815Z,8.40
2022-09-18T05:53:05.495Z,11.90
2022-09-18T05:56:38.947Z,12.00
2022-09-18T06:00:16.001Z,11.90
2022-09-18T06:03:52.632Z,6.20
2022-09-18T06:07:32.785Z,10.00
2022-09-18T06:11:06.437Z,9.40
2022-09-18T06:14:43.357Z,10.30
2022-09-18T06:18:20.176Z,12.30
2022-09-18T06:21:56.549Z,8.10
2022-09-18T06:25:33.484Z,7.30
2022-09-18T06:29:10.237Z,6.30
2022-09-18T06:32:47.308Z,9.50
2022-09-18T06:36:24.038Z,15.00
2022-09-18T06:40:19.681Z,7.80
2022-09-18T06:43:38.047Z,8.40
2022-09-18T06:47:14.724Z,11.70
2022-09-18T06:50:56.242Z,8.10
2022-09-18T06:54:28.550Z,9.80
2022-09-18T06:58:05.086Z,8.30
2022-09-18T07:01:42.405Z,9.50
2022-09-18T07:05:18.668Z,8.60
2022-09-18T07:08:56.788Z,7.70
2022-09-18T07:12:32.449Z,6.60
2022-09-18T07:16:09.260Z,6.50
2022-09-18T07:19:45.950Z,8.10
2022-09-18T07:23:24.499Z,7.30
2022-09-18T07:26:59.339Z,6.40
2022-09-18T07:30:40.348Z,7.30
2022-09-18T07:34:13.246Z,5.30
2022-09-18T07:37:49.639Z,5.90
2022-09-18T07:41:26.622Z,5.80
2022-09-18T07:45:03.997Z,4.00
2022-09-18T07:48:40.496Z,6.70
2022-09-18T07:52:18.258Z,4.60
2022-09-18T07:55:56.019Z,7.90
2022-09-18T07:59:30.838Z,5.80
2022-09-18T08:03:11.998Z,4.90
2022-09-18T08:06:44.178Z,3.40
2022-09-18T08:10:20.921Z,4.90
2022-09-18T08:13:57.756Z,6.20
2022-09-18T08:21:11.962Z,2.50
2022-09-18T08:25:08.617Z,2.20
2022-09-18T08:28:25.054Z,3.40
2022-09-18T08:32:06.510Z,2.90
2022-09-18T08:35:38.744Z,3.80
2022-09-18T08:39:16.156Z,4.00
2022-09-18T08:43:31.424Z,4.50
2022-09-18T08:47:08.923Z,5.80
2022-09-18T08:50:18.428Z,4.30
2022-09-18T08:57:56.810Z,2.60
2022-09-18T09:01:19.189Z,5.60
2022-09-18T09:05:02.468Z,4.50
2022-09-18T09:08:58.216Z,4.20
2022-09-18T09:12:19.784Z,3.80
2022-09-18T09:16:04.191Z,6.40
2022-09-18T09:19:35.346Z,3.20
2022-09-18T09:23:05.523Z,5.80
2022-09-18T09:26:37.304Z,3.70
2022-09-18T09:30:16.636Z,2.90
2022-09-18T09:34:11.042Z,2.90
2022-09-18T09:37:50.820Z,4.80
2022-09-18T09:41:31.789Z,2.50
2022-09-18T09:44:53.088Z,3.60
2022-09-18T09:48:41.498Z,2.10
2022-09-18T09:52:11.349Z,3.00
2022-09-18T09:59:31.925Z,3.00
2022-09-18T10:03:23.466Z,3.50
2022-09-18T10:06:54.797Z,3.70
2022-09-18T10:10:17.155Z,4.70
2022-09-18T10:20:59.199Z,3.40
2022-09-18T10:28:13.702Z,2.20
2022-09-18T10:39:00.304Z,2.30
2022-09-18T10:53:24.740Z,1.30
2022-09-18T10:57:26.400Z,0.30
2022-09-18T11:00:42.408Z,1.50
2022-09-18T11:04:18.088Z,5.00
2022-09-18T11:07:58.638Z,1.20
2022-09-18T11:11:38.908Z,3.00
2022-09-18T11:15:08.267Z,5.30
2022-09-18T11:18:47.969Z,7.20
2022-09-18T11:22:42.981Z,1.50
2022-09-18T11:26:27.082Z,3.50
2022-09-18T11:29:42.428Z,3.40
2022-09-18T11:33:50.000Z,1.20
2022-09-18T11:37:13.386Z,3.70
2022-09-18T11:40:50.748Z,2.80
2022-09-18T11:44:29.062Z,1.50
2022-09-18T11:48:15.371Z,5.10
2022-09-18T11:52:17.707Z,3.30
2022-09-18T11:55:46.708Z,0.90
2022-09-18T11:59:44.359Z,2.50
2022-09-18T12:03:00.774Z,3.90
2022-09-18T12:06:58.457Z,3.80
2022-09-18T12:10:32.598Z,1.80
2022-09-18T12:13:45.810Z,3.80
2022-09-18T12:21:03.392Z,1.80
2022-09-18T12:24:32.279Z,1.60
2022-09-18T12:28:31.588Z,3.50
2022-09-18T12:32:04.775Z,4.40
2022-09-18T12:36:04.784Z,6.20
2022-09-18T12:39:26.850Z,1.70
2022-09-18T12:43:20.148Z,2.40
2022-09-18T12:46:51.748Z,1.20
2022-09-18T12:50:39.942Z,0.70
2022-09-18T12:54:17.052Z,2.80
2022-09-18T12:57:33.106Z,0.30
2022-09-18T13:01:08.985Z,1.50
2022-09-18T13:04:48.995Z,2.60
2022-09-18T13:08:36.134Z,6.20
2022-09-18T13:11:58.912Z,2.40
2022-09-18T13:15:38.757Z,2.60
2022-09-18T13:19:14.268Z,5.20
2022-09-18T13:22:45.037Z,1.60
2022-09-18T13:26:21.718Z,4.60
2022-09-18T13:29:59.253Z,2.20
2022-09-18T13:33:32.626Z,5.20
2022-09-18T13:37:17.088Z,5.10
2022-09-18T13:41:08.444Z,3.70
2022-09-18T13:44:29.367Z,3.50
2022-09-18T13:51:37.754Z,1.40
2022-09-18T13:55:13.270Z,2.60
2022-09-18T13:59:20.653Z,3.70
2022-09-18T14:02:28.654Z,4.00
2022-09-18T14:06:42.761Z,1.60
2022-09-18T14:09:59.767Z,2.40
2022-09-18T14:13:29.909Z,4.00
2022-09-18T14:17:14.769Z,0.40
2022-09-18T14:20:34.210Z,3.70
2022-09-18T14:24:36.389Z,3.90
2022-09-18T14:27:57.404Z,3.20
2022-09-18T14:31:29.830Z,4.80
2022-09-18T14:35:30.536Z,2.60
2022-09-18T14:38:44.310Z,3.30
2022-09-18T14:42:42.080Z,2.40
2022-09-18T14:45:57.837Z,1.70
2022-09-18T14:49:43.597Z,0.90
2022-09-18T14:53:28.159Z,1.90
2022-09-18T14:56:50.734Z,0.60
2022-09-18T15:00:30.336Z,2.20
2022-09-18T15:04:05.197Z,1.50
2022-09-18T15:07:40.359Z,0.50
2022-09-18T15:11:18.052Z,1.70
2022-09-18T15:14:52.828Z,1.10
2022-09-18T15:18:31.040Z,0.90
2022-09-18T15:22:06.094Z,1.80
2022-09-18T15:25:45.999Z,1.00
2022-09-18T15:29:43.013Z,2.70
2022-09-18T15:33:05.360Z,2.70
2022-09-18T15:36:37.055Z,2.00
2022-09-18T15:40:19.384Z,0.40
2022-09-18T15:43:50.388Z,1.10
2022-09-18T15:47:33.194Z,1.80
2022-09-18T15:51:25.902Z,2.20
2022-09-18T15:54:38.182Z,0.40
2022-09-18T15:58:43.614Z,5.10
2022-09-18T16:01:51.596Z,1.70
2022-09-18T16:05:31.427Z,3.80
2022-09-18T16:09:07.798Z,3.30
2022-09-18T16:12:49.408Z,4.30
2022-09-18T16:16:24.344Z,1.50
2022-09-18T16:20:02.096Z,5.80
2022-09-18T16:23:50.129Z,2.30
2022-09-18T16:27:22.542Z,0.90
2022-09-18T16:30:47.257Z,4.30
2022-09-18T16:34:29.685Z,3.50
2022-09-18T16:37:59.327Z,0.70
2022-09-18T16:41:36.200Z,3.20
2022-09-18T16:45:15.546Z,2.60
2022-09-18T16:48:50.060Z,4.00
2022-09-18T16:52:26.909Z,2.10
2022-09-18T16:56:07.036Z,1.40
2022-09-18T16:59:42.866Z,3.30
2022-09-18T17:03:18.347Z,2.70
2022-09-18T17:06:53.552Z,2.30
2022-09-18T17:10:32.029Z,1.10
2022-09-18T17:14:07.385Z,3.00
2022-09-18T17:17:45.634Z,3.40
2022-09-18T17:21:21.006Z,4.40
2022-09-18T17:24:57.508Z,2.20
2022-09-18T17:28:36.298Z,3.10
2022-09-18T17:32:12.101Z,3.80
2022-09-18T17:35:48.077Z,5.20
2022-09-18T17:39:24.798Z,4.20
2022-09-18T17:43:01.687Z,4.50
2022-09-18T17:46:38.247Z,3.60
2022-09-18T17:50:15.016Z,5.10
2022-09-18T17:53:58.132Z,5.40
2022-09-18T17:57:31.285Z,7.20
2022-09-18T18:01:13.329Z,4.80
2022-09-18T18:04:43.584Z,2.90
2022-09-18T18:08:19.378Z,6.30
2022-09-18T18:11:59.219Z,3.80
2022-09-18T18:15:32.826Z,4.90
2022-09-18T18:19:14.496Z,1.30
2022-09-18T18:22:46.959Z,3.80
2022-09-18T18:26:22.989Z,3.50
2022-09-18T18:30:00.557Z,4.30
2022-09-18T18:33:37.206Z,7.70
2022-09-18T18:37:13.337Z,4.20
2022-09-18T18:40:52.422Z,2.60
2022-09-18T18:44:27.463Z,3.30
2022-09-18T18:48:06.371Z,2.50
2022-09-18T18:51:43.873Z,3.10
2022-09-18T18:55:18.753Z,2.40
2022-09-18T18:59:00.174Z,2.30
2022-09-18T19:02:38.179Z,4.10
2022-09-18T19:06:08.138Z,1.10
2022-09-18T19:09:44.818Z,2.60
2022-09-18T19:13:25.126Z,2.90
2022-09-18T19:16:59.233Z,1.30
2022-09-18T19:20:36.827Z,0.10
2022-09-18T19:24:12.568Z,2.40
2022-09-18T19:27:48.839Z,1.00
2022-09-18T19:31:28.194Z,2.10
2022-09-18T19:35:02.587Z,4.20
2022-09-18T19:38:39.344Z,2.70
2022-09-18T19:42:17.437Z,4.50
2022-09-18T19:45:52.801Z,4.00
2022-09-18T19:49:33.638Z,2.70
2022-09-18T19:53:06.905Z,1.50
2022-09-18T19:56:48.185Z,2.10
2022-09-18T20:00:20.314Z,3.70
2022-09-18T20:03:59.158Z,2.70
2022-09-18T20:07:34.259Z,1.20
2022-09-18T20:11:10.239Z,2.90
2022-09-18T20:14:46.869Z,2.00
2022-09-18T20:18:24.179Z,1.50
2022-09-18T20:22:03.117Z,2.40
2022-09-18T20:25:39.379Z,2.70
2022-09-18T20:29:16.130Z,2.20
2022-09-18T20:32:51.926Z,1.90
2022-09-18T20:36:28.914Z,2.80
2022-09-18T20:40:07.173Z,2.00
2022-09-18T20:43:44.330Z,3.90
2022-09-18T20:47:18.207Z,1.40
2022-09-18T20:50:56.648Z,2.30
2022-09-18T20:54:32.787Z,4.20
2022-09-18T20:58:08.810Z,1.50
2022-09-18T21:01:47.198Z,1.60
2022-09-18T21:05:22.166Z,3.80
2022-09-18T21:09:00.975Z,3.40
2022-09-18T21:12:39.212Z,2.00
2022-09-18T21:16:14.252Z,1.30
2022-09-18T21:19:50.544Z,2.60
2022-09-18T21:23:44.649Z,1.10
2022-09-18T21:27:03.208Z,1.70
2022-09-18T21:30:39.808Z,2.80
2022-09-18T21:34:24.633Z,1.90
2022-09-18T21:37:54.708Z,2.20
2022-09-18T21:41:30.791Z,0.90
2022-09-18T21:45:07.802Z,2.20
2022-09-18T21:48:44.609Z,1.00
2022-09-18T21:52:20.550Z,0.80
2022-09-18T21:56:08.654Z,1.70
2022-09-18T21:59:36.187Z,1.50
2022-09-18T22:03:10.962Z,3.40
2022-09-18T22:06:51.081Z,4.40
2022-09-18T22:10:25.861Z,5.80
2022-09-18T22:14:04.011Z,2.20
2022-09-18T22:17:39.311Z,4.40
2022-09-18T22:21:31.392Z,5.60
2022-09-18T22:24:52.111Z,6.90
2022-09-18T22:28:28.820Z,2.20
2022-09-18T22:32:06.133Z,6.20
2022-09-18T22:35:42.197Z,3.10
2022-09-18T22:39:20.671Z,2.50
2022-09-18T22:42:56.483Z,0.90
2022-09-18T22:46:33.353Z,1.70
2022-09-18T22:50:09.771Z,3.40
2022-09-18T22:53:52.719Z,2.10
2022-09-18T22:57:23.412Z,2.70
2022-09-18T23:01:14.498Z,1.80
2022-09-18T23:04:37.039Z,1.10
2022-09-18T23:08:13.813Z,1.60
2022-09-18T23:11:54.317Z,2.50
2022-09-18T23:15:27.573Z,2.80
2022-09-18T23:19:14.432Z,1.20
2022-09-18T23:22:41.251Z,2.40
2022-09-18T23:26:23.283Z,6.40
2022-09-18T23:29:54.255Z,2.10
2022-09-18T23:33:31.235Z,2.80
2022-09-18T23:37:08.216Z,4.30
2022-09-18T23:40:44.692Z,6.80
2022-09-18T23:44:22.881Z,1.70
2022-09-18T23:47:58.275Z,3.50
2022-09-18T23:51:37.392Z,3.00
2022-09-18T23:55:12.174Z,1.00
2022-09-18T23:58:53.417Z,0.60
